sensor_id;sensor_type;location;lat;lon;timestamp;P1;durP1;ratioP1;P2;durP2;ratioP2
25439;SDS011;13365;52.208;5.488;2022-10-13T00:00:32;9.52;;;4.45;;
25439;SDS011;13365;52.208;5.488;2022-10-13T00:02:58;9.75;;;5.70;;
25439;SDS011;13365;52.208;5.488;2022-10-13T00:05:25;8.55;;;4.22;;
25439;SDS011;13365;52.208;5.488;2022-10-13T00:07:51;8.95;;;4.57;;
25439;SDS011;13365;52.208;5.488;2022-10-13T00:10:17;11.93;;;4.70;;
25439;SDS011;13365;52.208;5.488;2022-10-13T00:12:43;11.00;;;4.95;;
25439;SDS011;13365;52.208;5.488;2022-10-13T00:15:08;13.45;;;5.88;;
25439;SDS011;13365;52.208;5.488;2022-10-13T00:17:36;14.60;;;5.40;;
25439;SDS011;13365;52.208;5.488;2022-10-13T00:20:02;15.75;;;5.80;;
25439;SDS011;13365;52.208;5.488;2022-10-13T00:22:29;8.82;;;4.65;;
25439;SDS011;13365;52.208;5.488;2022-10-13T00:24:55;7.10;;;4.15;;
25439;SDS011;13365;52.208;5.488;2022-10-13T00:27:20;11.00;;;4.78;;
25439;SDS011;13365;52.208;5.488;2022-10-13T00:29:46;8.43;;;3.85;;
25439;SDS011;13365;52.208;5.488;2022-10-13T00:32:11;9.80;;;4.28;;
25439;SDS011;13365;52.208;5.488;2022-10-13T00:34:37;10.88;;;4.30;;
25439;SDS011;13365;52.208;5.488;2022-10-13T00:37:03;13.52;;;5.35;;
25439;SDS011;13365;52.208;5.488;2022-10-13T00:39:29;13.10;;;5.28;;
25439;SDS011;13365;52.208;5.488;2022-10-13T00:41:56;9.18;;;4.18;;
25439;SDS011;13365;52.208;5.488;2022-10-13T00:47:25;11.98;;;4.85;;
25439;SDS011;13365;52.208;5.488;2022-10-13T00:49:52;7.55;;;4.72;;
25439;SDS011;13365;52.208;5.488;2022-10-13T00:52:19;10.27;;;5.78;;
25439;SDS011;13365;52.208;5.488;2022-10-13T00:54:48;9.98;;;5.25;;
25439;SDS011;13365;52.208;5.488;2022-10-13T00:57:14;9.68;;;3.75;;
25439;SDS011;13365;52.208;5.488;2022-10-13T00:59:41;12.55;;;5.65;;
25439;SDS011;13365;52.208;5.488;2022-10-13T01:02:07;8.95;;;4.15;;
25439;SDS011;13365;52.208;5.488;2022-10-13T01:04:35;9.55;;;4.07;;
25439;SDS011;13365;52.208;5.488;2022-10-13T01:07:03;9.77;;;4.65;;
25439;SDS011;13365;52.208;5.488;2022-10-13T01:09:30;15.90;;;5.15;;
25439;SDS011;13365;52.208;5.488;2022-10-13T01:12:05;8.25;;;4.20;;
25439;SDS011;13365;52.208;5.488;2022-10-13T01:14:55;12.63;;;4.03;;
25439;SDS011;13365;52.208;5.488;2022-10-13T01:20:45;9.23;;;4.20;;
25439;SDS011;13365;52.208;5.488;2022-10-13T01:23:34;8.38;;;4.13;;
25439;SDS011;13365;52.208;5.488;2022-10-13T01:26:14;10.93;;;4.93;;
25439;SDS011;13365;52.208;5.488;2022-10-13T01:28:55;12.30;;;4.80;;
25439;SDS011;13365;52.208;5.488;2022-10-13T01:31:51;8.73;;;4.22;;
25439;SDS011;13365;52.208;5.488;2022-10-13T01:34:31;10.95;;;4.13;;
25439;SDS011;13365;52.208;5.488;2022-10-13T01:37:06;12.07;;;4.85;;
25439;SDS011;13365;52.208;5.488;2022-10-13T01:39:56;10.30;;;5.15;;
25439;SDS011;13365;52.208;5.488;2022-10-13T01:42:29;10.13;;;4.68;;
25439;SDS011;13365;52.208;5.488;2022-10-13T01:45:03;8.32;;;5.03;;
25439;SDS011;13365;52.208;5.488;2022-10-13T01:47:31;9.55;;;4.20;;
25439;SDS011;13365;52.208;5.488;2022-10-13T01:49:59;11.38;;;5.15;;
25439;SDS011;13365;52.208;5.488;2022-10-13T01:52:26;10.40;;;4.07;;
25439;SDS011;13365;52.208;5.488;2022-10-13T01:55:03;9.10;;;4.80;;
25439;SDS011;13365;52.208;5.488;2022-10-13T01:57:37;10.70;;;4.78;;
25439;SDS011;13365;52.208;5.488;2022-10-13T02:00:06;10.23;;;4.78;;
25439;SDS011;13365;52.208;5.488;2022-10-13T02:02:36;9.52;;;5.15;;
25439;SDS011;13365;52.208;5.488;2022-10-13T02:05:13;13.18;;;5.65;;
25439;SDS011;13365;52.208;5.488;2022-10-13T02:08:01;9.32;;;5.10;;
25439;SDS011;13365;52.208;5.488;2022-10-13T02:10:30;11.65;;;4.75;;
25439;SDS011;13365;52.208;5.488;2022-10-13T02:13:04;9.95;;;4.80;;
25439;SDS011;13365;52.208;5.488;2022-10-13T02:15:36;9.63;;;4.70;;
25439;SDS011;13365;52.208;5.488;2022-10-13T02:18:08;11.48;;;5.07;;
25439;SDS011;13365;52.208;5.488;2022-10-13T02:20:40;9.88;;;4.95;;
25439;SDS011;13365;52.208;5.488;2022-10-13T02:23:11;11.30;;;5.03;;
25439;SDS011;13365;52.208;5.488;2022-10-13T02:25:38;9.27;;;5.03;;
25439;SDS011;13365;52.208;5.488;2022-10-13T02:28:05;7.68;;;4.57;;
25439;SDS011;13365;52.208;5.488;2022-10-13T02:30:31;8.55;;;4.90;;
25439;SDS011;13365;52.208;5.488;2022-10-13T02:33:01;8.10;;;4.22;;
25439;SDS011;13365;52.208;5.488;2022-10-13T02:35:27;7.95;;;4.22;;
25439;SDS011;13365;52.208;5.488;2022-10-13T02:37:53;9.15;;;4.82;;
25439;SDS011;13365;52.208;5.488;2022-10-13T02:40:19;9.48;;;4.15;;
25439;SDS011;13365;52.208;5.488;2022-10-13T02:42:45;10.20;;;5.32;;
25439;SDS011;13365;52.208;5.488;2022-10-13T02:45:10;12.00;;;4.60;;
25439;SDS011;13365;52.208;5.488;2022-10-13T02:47:36;9.65;;;4.97;;
25439;SDS011;13365;52.208;5.488;2022-10-13T02:50:03;9.60;;;4.72;;
25439;SDS011;13365;52.208;5.488;2022-10-13T02:52:29;11.93;;;4.88;;
25439;SDS011;13365;52.208;5.488;2022-10-13T02:54:54;7.95;;;4.22;;
25439;SDS011;13365;52.208;5.488;2022-10-13T02:57:20;12.38;;;4.88;;
25439;SDS011;13365;52.208;5.488;2022-10-13T02:59:46;11.05;;;4.38;;
25439;SDS011;13365;52.208;5.488;2022-10-13T03:02:11;10.55;;;4.18;;
25439;SDS011;13365;52.208;5.488;2022-10-13T03:04:37;7.03;;;3.63;;
25439;SDS011;13365;52.208;5.488;2022-10-13T03:07:02;12.00;;;5.53;;
25439;SDS011;13365;52.208;5.488;2022-10-13T03:09:28;6.80;;;4.18;;
25439;SDS011;13365;52.208;5.488;2022-10-13T03:11:53;9.57;;;4.95;;
25439;SDS011;13365;52.208;5.488;2022-10-13T03:14:19;7.82;;;4.20;;
25439;SDS011;13365;52.208;5.488;2022-10-13T03:16:45;13.27;;;4.72;;
25439;SDS011;13365;52.208;5.488;2022-10-13T03:19:10;6.63;;;4.05;;
25439;SDS011;13365;52.208;5.488;2022-10-13T03:21:36;7.45;;;4.28;;
25439;SDS011;13365;52.208;5.488;2022-10-13T03:24:03;10.10;;;5.05;;
25439;SDS011;13365;52.208;5.488;2022-10-13T03:26:29;10.68;;;4.78;;
25439;SDS011;13365;52.208;5.488;2022-10-13T03:28:55;10.88;;;4.75;;
25439;SDS011;13365;52.208;5.488;2022-10-13T03:31:21;13.25;;;4.90;;
25439;SDS011;13365;52.208;5.488;2022-10-13T03:33:46;7.38;;;4.15;;
25439;SDS011;13365;52.208;5.488;2022-10-13T03:36:12;8.65;;;4.68;;
25439;SDS011;13365;52.208;5.488;2022-10-13T03:38:38;10.88;;;5.57;;
25439;SDS011;13365;52.208;5.488;2022-10-13T03:41:14;8.98;;;4.72;;
25439;SDS011;13365;52.208;5.488;2022-10-13T03:43:42;7.85;;;4.57;;
25439;SDS011;13365;52.208;5.488;2022-10-13T03:46:12;8.77;;;4.80;;
25439;SDS011;13365;52.208;5.488;2022-10-13T03:48:39;14.10;;;5.03;;
25439;SDS011;13365;52.208;5.488;2022-10-13T03:51:08;11.60;;;5.15;;
25439;SDS011;13365;52.208;5.488;2022-10-13T03:53:41;14.15;;;5.53;;
25439;SDS011;13365;52.208;5.488;2022-10-13T03:56:07;7.75;;;5.03;;
25439;SDS011;13365;52.208;5.488;2022-10-13T03:58:36;8.88;;;3.95;;
25439;SDS011;13365;52.208;5.488;2022-10-13T04:01:03;11.05;;;4.53;;
25439;SDS011;13365;52.208;5.488;2022-10-13T04:03:29;14.57;;;4.90;;
25439;SDS011;13365;52.208;5.488;2022-10-13T04:05:57;11.95;;;5.38;;
25439;SDS011;13365;52.208;5.488;2022-10-13T04:08:24;8.50;;;5.07;;
25439;SDS011;13365;52.208;5.488;2022-10-13T04:10:57;15.95;;;4.90;;
25439;SDS011;13365;52.208;5.488;2022-10-13T04:13:27;11.55;;;5.35;;
25439;SDS011;13365;52.208;5.488;2022-10-13T04:15:52;7.82;;;4.47;;
25439;SDS011;13365;52.208;5.488;2022-10-13T04:18:18;8.23;;;4.65;;
25439;SDS011;13365;52.208;5.488;2022-10-13T04:20:43;11.50;;;4.93;;
25439;SDS011;13365;52.208;5.488;2022-10-13T04:23:09;8.55;;;4.15;;
25439;SDS011;13365;52.208;5.488;2022-10-13T04:25:35;10.85;;;4.95;;
25439;SDS011;13365;52.208;5.488;2022-10-13T04:28:02;10.93;;;4.47;;
25439;SDS011;13365;52.208;5.488;2022-10-13T04:30:29;10.32;;;4.03;;
25439;SDS011;13365;52.208;5.488;2022-10-13T04:32:56;8.18;;;4.28;;
25439;SDS011;13365;52.208;5.488;2022-10-13T04:35:21;7.55;;;4.38;;
25439;SDS011;13365;52.208;5.488;2022-10-13T04:37:47;10.38;;;4.60;;
25439;SDS011;13365;52.208;5.488;2022-10-13T04:40:12;8.98;;;4.75;;
25439;SDS011;13365;52.208;5.488;2022-10-13T04:42:39;8.95;;;4.95;;
25439;SDS011;13365;52.208;5.488;2022-10-13T04:45:05;10.60;;;5.57;;
25439;SDS011;13365;52.208;5.488;2022-10-13T04:47:31;9.98;;;4.95;;
25439;SDS011;13365;52.208;5.488;2022-10-13T04:49:58;8.55;;;4.20;;
25439;SDS011;13365;52.208;5.488;2022-10-13T04:52:23;13.55;;;4.95;;
25439;SDS011;13365;52.208;5.488;2022-10-13T04:54:49;8.95;;;4.68;;
25439;SDS011;13365;52.208;5.488;2022-10-13T04:57:14;7.90;;;4.93;;
25439;SDS011;13365;52.208;5.488;2022-10-13T04:59:40;10.93;;;5.10;;
25439;SDS011;13365;52.208;5.488;2022-10-13T05:02:05;8.70;;;5.13;;
25439;SDS011;13365;52.208;5.488;2022-10-13T05:04:31;8.70;;;4.72;;
25439;SDS011;13365;52.208;5.488;2022-10-13T05:06:56;10.88;;;4.68;;
25439;SDS011;13365;52.208;5.488;2022-10-13T05:09:22;12.20;;;5.07;;
25439;SDS011;13365;52.208;5.488;2022-10-13T05:11:47;11.10;;;5.57;;
25439;SDS011;13365;52.208;5.488;2022-10-13T05:14:13;11.40;;;5.35;;
25439;SDS011;13365;52.208;5.488;2022-10-13T05:16:39;11.23;;;5.25;;
25439;SDS011;13365;52.208;5.488;2022-10-13T05:19:04;12.07;;;5.28;;
25439;SDS011;13365;52.208;5.488;2022-10-13T05:21:30;9.63;;;5.32;;
25439;SDS011;13365;52.208;5.488;2022-10-13T05:23:55;14.48;;;5.50;;
25439;SDS011;13365;52.208;5.488;2022-10-13T05:26:23;8.38;;;4.78;;
25439;SDS011;13365;52.208;5.488;2022-10-13T05:28:53;12.07;;;5.57;;
25439;SDS011;13365;52.208;5.488;2022-10-13T05:31:22;6.88;;;3.78;;
25439;SDS011;13365;52.208;5.488;2022-10-13T05:33:49;10.77;;;5.03;;
25439;SDS011;13365;52.208;5.488;2022-10-13T05:36:19;12.90;;;5.25;;
25439;SDS011;13365;52.208;5.488;2022-10-13T05:38:53;10.15;;;4.00;;
25439;SDS011;13365;52.208;5.488;2022-10-13T05:41:21;16.00;;;5.43;;
25439;SDS011;13365;52.208;5.488;2022-10-13T05:43:48;15.30;;;6.32;;
25439;SDS011;13365;52.208;5.488;2022-10-13T05:46:17;10.43;;;5.78;;
25439;SDS011;13365;52.208;5.488;2022-10-13T05:48:42;8.15;;;5.40;;
25439;SDS011;13365;52.208;5.488;2022-10-13T05:51:50;13.10;;;5.40;;
25439;SDS011;13365;52.208;5.488;2022-10-13T05:54:01;9.65;;;4.78;;
25439;SDS011;13365;52.208;5.488;2022-10-13T05:56:37;14.75;;;6.30;;
25439;SDS011;13365;52.208;5.488;2022-10-13T05:59:06;6.93;;;4.45;;
25439;SDS011;13365;52.208;5.488;2022-10-13T06:01:35;10.75;;;5.40;;
25439;SDS011;13365;52.208;5.488;2022-10-13T06:04:05;10.48;;;5.03;;
25439;SDS011;13365;52.208;5.488;2022-10-13T06:06:37;11.15;;;5.40;;
25439;SDS011;13365;52.208;5.488;2022-10-13T06:09:04;14.57;;;5.90;;
25439;SDS011;13365;52.208;5.488;2022-10-13T06:11:29;13.93;;;5.65;;
25439;SDS011;13365;52.208;5.488;2022-10-13T06:13:55;15.52;;;4.50;;
25439;SDS011;13365;52.208;5.488;2022-10-13T06:16:20;10.40;;;5.80;;
25439;SDS011;13365;52.208;5.488;2022-10-13T06:18:46;8.73;;;4.68;;
25439;SDS011;13365;52.208;5.488;2022-10-13T06:21:11;11.60;;;6.20;;
25439;SDS011;13365;52.208;5.488;2022-10-13T06:23:37;11.75;;;6.13;;
25439;SDS011;13365;52.208;5.488;2022-10-13T06:26:03;10.23;;;6.18;;
25439;SDS011;13365;52.208;5.488;2022-10-13T06:28:31;19.90;;;5.15;;
25439;SDS011;13365;52.208;5.488;2022-10-13T06:30:56;22.67;;;6.57;;
25439;SDS011;13365;52.208;5.488;2022-10-13T06:33:22;7.80;;;4.95;;
25439;SDS011;13365;52.208;5.488;2022-10-13T06:35:51;12.77;;;5.30;;
25439;SDS011;13365;52.208;5.488;2022-10-13T06:38:17;10.48;;;4.75;;
25439;SDS011;13365;52.208;5.488;2022-10-13T06:40:43;8.65;;;4.53;;
25439;SDS011;13365;52.208;5.488;2022-10-13T06:43:09;11.52;;;5.75;;
25439;SDS011;13365;52.208;5.488;2022-10-13T06:45:35;12.88;;;5.35;;
25439;SDS011;13365;52.208;5.488;2022-10-13T06:48:00;14.63;;;5.50;;
25439;SDS011;13365;52.208;5.488;2022-10-13T06:50:26;8.18;;;4.70;;
25439;SDS011;13365;52.208;5.488;2022-10-13T06:52:53;10.02;;;5.00;;
25439;SDS011;13365;52.208;5.488;2022-10-13T06:55:19;11.50;;;4.72;;
25439;SDS011;13365;52.208;5.488;2022-10-13T06:57:45;11.98;;;5.88;;
25439;SDS011;13365;52.208;5.488;2022-10-13T07:00:10;8.20;;;5.32;;
25439;SDS011;13365;52.208;5.488;2022-10-13T07:02:36;11.18;;;5.15;;
25439;SDS011;13365;52.208;5.488;2022-10-13T07:05:02;19.58;;;5.30;;
25439;SDS011;13365;52.208;5.488;2022-10-13T07:07:27;11.68;;;5.28;;
25439;SDS011;13365;52.208;5.488;2022-10-13T07:09:53;11.73;;;5.20;;
25439;SDS011;13365;52.208;5.488;2022-10-13T07:12:18;10.32;;;5.43;;
25439;SDS011;13365;52.208;5.488;2022-10-13T07:14:45;9.02;;;5.05;;
25439;SDS011;13365;52.208;5.488;2022-10-13T07:17:13;9.55;;;5.18;;
25439;SDS011;13365;52.208;5.488;2022-10-13T07:19:39;12.18;;;5.85;;
25439;SDS011;13365;52.208;5.488;2022-10-13T07:22:04;9.57;;;5.18;;
25439;SDS011;13365;52.208;5.488;2022-10-13T07:24:30;9.05;;;5.47;;
25439;SDS011;13365;52.208;5.488;2022-10-13T07:26:55;9.32;;;5.20;;
25439;SDS011;13365;52.208;5.488;2022-10-13T07:29:21;9.80;;;5.93;;
25439;SDS011;13365;52.208;5.488;2022-10-13T07:31:46;11.00;;;5.63;;
25439;SDS011;13365;52.208;5.488;2022-10-13T07:34:13;15.15;;;5.82;;
25439;SDS011;13365;52.208;5.488;2022-10-13T07:36:38;19.02;;;5.85;;
25439;SDS011;13365;52.208;5.488;2022-10-13T07:39:06;13.13;;;6.43;;
25439;SDS011;13365;52.208;5.488;2022-10-13T07:41:34;12.27;;;5.50;;
25439;SDS011;13365;52.208;5.488;2022-10-13T07:44:00;16.35;;;6.53;;
25439;SDS011;13365;52.208;5.488;2022-10-13T07:46:26;11.38;;;6.38;;
25439;SDS011;13365;52.208;5.488;2022-10-13T07:48:52;13.80;;;5.85;;
25439;SDS011;13365;52.208;5.488;2022-10-13T07:51:18;13.57;;;6.30;;
25439;SDS011;13365;52.208;5.488;2022-10-13T07:53:45;12.75;;;5.60;;
25439;SDS011;13365;52.208;5.488;2022-10-13T07:56:11;15.23;;;6.60;;
25439;SDS011;13365;52.208;5.488;2022-10-13T07:58:39;16.10;;;7.30;;
25439;SDS011;13365;52.208;5.488;2022-10-13T08:01:06;15.20;;;6.20;;
25439;SDS011;13365;52.208;5.488;2022-10-13T08:03:33;13.57;;;6.97;;
25439;SDS011;13365;52.208;5.488;2022-10-13T08:05:59;19.60;;;8.10;;
25439;SDS011;13365;52.208;5.488;2022-10-13T08:08:26;15.48;;;6.10;;
25439;SDS011;13365;52.208;5.488;2022-10-13T08:10:52;14.60;;;7.45;;
25439;SDS011;13365;52.208;5.488;2022-10-13T08:13:18;18.27;;;7.93;;
25439;SDS011;13365;52.208;5.488;2022-10-13T08:15:44;16.33;;;7.85;;
25439;SDS011;13365;52.208;5.488;2022-10-13T08:18:10;16.25;;;7.78;;
25439;SDS011;13365;52.208;5.488;2022-10-13T08:20:40;13.13;;;7.50;;
25439;SDS011;13365;52.208;5.488;2022-10-13T08:23:07;15.73;;;7.95;;
25439;SDS011;13365;52.208;5.488;2022-10-13T08:25:36;14.63;;;7.32;;
25439;SDS011;13365;52.208;5.488;2022-10-13T08:28:03;13.23;;;7.97;;
25439;SDS011;13365;52.208;5.488;2022-10-13T08:30:29;15.43;;;6.85;;
25439;SDS011;13365;52.208;5.488;2022-10-13T08:32:55;13.23;;;7.47;;
25439;SDS011;13365;52.208;5.488;2022-10-13T08:35:20;13.50;;;7.82;;
25439;SDS011;13365;52.208;5.488;2022-10-13T08:37:46;13.73;;;8.05;;
25439;SDS011;13365;52.208;5.488;2022-10-13T08:40:13;14.75;;;7.78;;
25439;SDS011;13365;52.208;5.488;2022-10-13T08:42:43;13.77;;;7.43;;
25439;SDS011;13365;52.208;5.488;2022-10-13T08:45:09;14.48;;;7.28;;
25439;SDS011;13365;52.208;5.488;2022-10-13T08:50:25;11.43;;;7.38;;
25439;SDS011;13365;52.208;5.488;2022-10-13T08:52:57;13.77;;;6.97;;
25439;SDS011;13365;52.208;5.488;2022-10-13T08:58:08;13.35;;;7.72;;
25439;SDS011;13365;52.208;5.488;2022-10-13T09:00:58;16.17;;;6.88;;
25439;SDS011;13365;52.208;5.488;2022-10-13T09:03:27;18.70;;;7.15;;
25439;SDS011;13365;52.208;5.488;2022-10-13T09:06:10;14.90;;;6.88;;
25439;SDS011;13365;52.208;5.488;2022-10-13T09:08:59;13.80;;;6.88;;
25439;SDS011;13365;52.208;5.488;2022-10-13T09:11:34;12.73;;;6.72;;
25439;SDS011;13365;52.208;5.488;2022-10-13T09:14:02;18.67;;;7.43;;
25439;SDS011;13365;52.208;5.488;2022-10-13T09:16:33;16.67;;;7.00;;
25439;SDS011;13365;52.208;5.488;2022-10-13T09:21:55;13.27;;;6.50;;
25439;SDS011;13365;52.208;5.488;2022-10-13T09:24:23;13.10;;;6.78;;
25439;SDS011;13365;52.208;5.488;2022-10-13T09:26:51;12.30;;;7.18;;
25439;SDS011;13365;52.208;5.488;2022-10-13T09:29:39;15.40;;;7.55;;
25439;SDS011;13365;52.208;5.488;2022-10-13T09:32:07;14.07;;;6.72;;
25439;SDS011;13365;52.208;5.488;2022-10-13T09:34:41;12.50;;;6.30;;
25439;SDS011;13365;52.208;5.488;2022-10-13T09:37:18;18.85;;;8.05;;
25439;SDS011;13365;52.208;5.488;2022-10-13T09:40:01;13.70;;;6.97;;
25439;SDS011;13365;52.208;5.488;2022-10-13T09:42:38;12.23;;;6.65;;
25439;SDS011;13365;52.208;5.488;2022-10-13T09:45:11;11.05;;;6.00;;
25439;SDS011;13365;52.208;5.488;2022-10-13T09:47:39;10.90;;;6.68;;
25439;SDS011;13365;52.208;5.488;2022-10-13T09:52:51;11.68;;;6.65;;
25439;SDS011;13365;52.208;5.488;2022-10-13T09:55:25;19.20;;;7.47;;
25439;SDS011;13365;52.208;5.488;2022-10-13T09:58:09;13.80;;;7.20;;
25439;SDS011;13365;52.208;5.488;2022-10-13T10:00:39;14.83;;;7.67;;
25439;SDS011;13365;52.208;5.488;2022-10-13T10:03:16;12.85;;;7.18;;
25439;SDS011;13365;52.208;5.488;2022-10-13T10:05:52;9.50;;;6.38;;
25439;SDS011;13365;52.208;5.488;2022-10-13T10:11:28;13.38;;;7.05;;
25439;SDS011;13365;52.208;5.488;2022-10-13T10:13:59;14.85;;;6.28;;
25439;SDS011;13365;52.208;5.488;2022-10-13T10:16:37;10.27;;;5.68;;
25439;SDS011;13365;52.208;5.488;2022-10-13T10:19:19;10.95;;;6.40;;
25439;SDS011;13365;52.208;5.488;2022-10-13T10:21:56;13.80;;;6.00;;
25439;SDS011;13365;52.208;5.488;2022-10-13T10:27:55;12.38;;;5.60;;
25439;SDS011;13365;52.208;5.488;2022-10-13T10:30:31;8.65;;;5.45;;
25439;SDS011;13365;52.208;5.488;2022-10-13T10:33:10;12.05;;;5.75;;
25439;SDS011;13365;52.208;5.488;2022-10-13T10:35:51;10.45;;;5.22;;
25439;SDS011;13365;52.208;5.488;2022-10-13T10:38:33;9.68;;;5.25;;
25439;SDS011;13365;52.208;5.488;2022-10-13T10:44:14;9.07;;;4.40;;
25439;SDS011;13365;52.208;5.488;2022-10-13T10:46:46;10.48;;;5.03;;
25439;SDS011;13365;52.208;5.488;2022-10-13T10:49:22;14.45;;;5.10;;
25439;SDS011;13365;52.208;5.488;2022-10-13T10:51:52;8.43;;;4.47;;
25439;SDS011;13365;52.208;5.488;2022-10-13T10:56:57;9.02;;;4.13;;
25439;SDS011;13365;52.208;5.488;2022-10-13T10:59:32;8.38;;;4.47;;
25439;SDS011;13365;52.208;5.488;2022-10-13T11:02:15;8.18;;;4.07;;
25439;SDS011;13365;52.208;5.488;2022-10-13T11:04:57;10.23;;;4.18;;
25439;SDS011;13365;52.208;5.488;2022-10-13T11:12:25;11.55;;;4.88;;
25439;SDS011;13365;52.208;5.488;2022-10-13T11:18:49;10.35;;;3.78;;
25439;SDS011;13365;52.208;5.488;2022-10-13T11:21:08;7.55;;;4.22;;
25439;SDS011;13365;52.208;5.488;2022-10-13T11:23:34;7.55;;;4.25;;
25439;SDS011;13365;52.208;5.488;2022-10-13T11:29:13;7.75;;;4.07;;
25439;SDS011;13365;52.208;5.488;2022-10-13T11:31:51;9.75;;;3.92;;
25439;SDS011;13365;52.208;5.488;2022-10-13T11:34:25;16.48;;;4.55;;
25439;SDS011;13365;52.208;5.488;2022-10-13T11:36:59;12.40;;;4.13;;
25439;SDS011;13365;52.208;5.488;2022-10-13T11:42:09;7.70;;;4.07;;
25439;SDS011;13365;52.208;5.488;2022-10-13T11:45:05;10.90;;;4.13;;
25439;SDS011;13365;52.208;5.488;2022-10-13T11:53:20;9.00;;;4.55;;
25439;SDS011;13365;52.208;5.488;2022-10-13T11:55:55;13.98;;;4.82;;
25439;SDS011;13365;52.208;5.488;2022-10-13T11:58:31;13.73;;;5.30;;
25439;SDS011;13365;52.208;5.488;2022-10-13T12:00:58;9.23;;;5.45;;
25439;SDS011;13365;52.208;5.488;2022-10-13T12:05:59;13.43;;;6.70;;
25439;SDS011;13365;52.208;5.488;2022-10-13T12:08:28;14.13;;;6.93;;
25439;SDS011;13365;52.208;5.488;2022-10-13T12:10:56;13.48;;;7.00;;
25439;SDS011;13365;52.208;5.488;2022-10-13T12:13:28;15.98;;;6.38;;
25439;SDS011;13365;52.208;5.488;2022-10-13T12:15:55;11.50;;;6.35;;
25439;SDS011;13365;52.208;5.488;2022-10-13T12:20:59;13.23;;;7.45;;
25439;SDS011;13365;52.208;5.488;2022-10-13T12:23:34;17.23;;;7.05;;
25439;SDS011;13365;52.208;5.488;2022-10-13T12:26:00;18.25;;;7.25;;
25439;SDS011;13365;52.208;5.488;2022-10-13T12:28:30;16.45;;;6.93;;
25439;SDS011;13365;52.208;5.488;2022-10-13T12:33:52;13.52;;;6.82;;
25439;SDS011;13365;52.208;5.488;2022-10-13T12:36:20;12.40;;;6.07;;
25439;SDS011;13365;52.208;5.488;2022-10-13T12:38:49;13.68;;;6.07;;
25439;SDS011;13365;52.208;5.488;2022-10-13T12:41:17;10.77;;;5.22;;
25439;SDS011;13365;52.208;5.488;2022-10-13T12:43:48;8.82;;;5.60;;
25439;SDS011;13365;52.208;5.488;2022-10-13T12:46:33;9.65;;;5.22;;
25439;SDS011;13365;52.208;5.488;2022-10-13T12:49:04;8.60;;;5.35;;
25439;SDS011;13365;52.208;5.488;2022-10-13T12:51:32;11.70;;;5.95;;
25439;SDS011;13365;52.208;5.488;2022-10-13T12:53:59;13.35;;;5.65;;
25439;SDS011;13365;52.208;5.488;2022-10-13T12:56:31;12.00;;;5.55;;
25439;SDS011;13365;52.208;5.488;2022-10-13T12:58:57;11.40;;;5.15;;
25439;SDS011;13365;52.208;5.488;2022-10-13T13:01:27;17.10;;;5.68;;
25439;SDS011;13365;52.208;5.488;2022-10-13T13:06:59;11.18;;;6.05;;
25439;SDS011;13365;52.208;5.488;2022-10-13T13:09:30;10.60;;;6.07;;
25439;SDS011;13365;52.208;5.488;2022-10-13T13:14:42;10.80;;;5.68;;
25439;SDS011;13365;52.208;5.488;2022-10-13T13:19:46;10.35;;;6.20;;
25439;SDS011;13365;52.208;5.488;2022-10-13T13:22:13;12.43;;;5.60;;
25439;SDS011;13365;52.208;5.488;2022-10-13T13:24:39;10.77;;;5.78;;
25439;SDS011;13365;52.208;5.488;2022-10-13T13:29:58;12.30;;;5.93;;
25439;SDS011;13365;52.208;5.488;2022-10-13T13:32:24;9.32;;;4.75;;
25439;SDS011;13365;52.208;5.488;2022-10-13T13:34:51;14.95;;;4.93;;
25439;SDS011;13365;52.208;5.488;2022-10-13T13:40:02;9.20;;;5.25;;
25439;SDS011;13365;52.208;5.488;2022-10-13T13:42:29;13.18;;;5.75;;
25439;SDS011;13365;52.208;5.488;2022-10-13T13:44:55;15.93;;;5.90;;
25439;SDS011;13365;52.208;5.488;2022-10-13T13:47:25;20.55;;;6.28;;
25439;SDS011;13365;52.208;5.488;2022-10-13T13:49:52;12.20;;;5.90;;
25439;SDS011;13365;52.208;5.488;2022-10-13T13:52:20;13.27;;;5.95;;
25439;SDS011;13365;52.208;5.488;2022-10-13T13:54:46;12.98;;;7.72;;
25439;SDS011;13365;52.208;5.488;2022-10-13T13:57:12;14.93;;;6.32;;
25439;SDS011;13365;52.208;5.488;2022-10-13T13:59:39;14.30;;;5.50;;
25439;SDS011;13365;52.208;5.488;2022-10-13T14:02:06;13.18;;;6.05;;
25439;SDS011;13365;52.208;5.488;2022-10-13T14:04:39;11.55;;;6.55;;
25439;SDS011;13365;52.208;5.488;2022-10-13T14:07:05;12.25;;;5.97;;
25439;SDS011;13365;52.208;5.488;2022-10-13T14:09:31;11.93;;;6.00;;
25439;SDS011;13365;52.208;5.488;2022-10-13T14:11:56;17.65;;;5.78;;
25439;SDS011;13365;52.208;5.488;2022-10-13T14:14:22;12.10;;;7.00;;
25439;SDS011;13365;52.208;5.488;2022-10-13T14:16:48;15.75;;;6.32;;
25439;SDS011;13365;52.208;5.488;2022-10-13T14:19:14;15.18;;;7.50;;
25439;SDS011;13365;52.208;5.488;2022-10-13T14:21:39;14.00;;;6.55;;
25439;SDS011;13365;52.208;5.488;2022-10-13T14:24:05;13.05;;;6.93;;
25439;SDS011;13365;52.208;5.488;2022-10-13T14:26:31;14.10;;;6.18;;
25439;SDS011;13365;52.208;5.488;2022-10-13T14:28:56;17.02;;;6.32;;
25439;SDS011;13365;52.208;5.488;2022-10-13T14:31:22;12.65;;;5.85;;
25439;SDS011;13365;52.208;5.488;2022-10-13T14:33:48;13.80;;;6.30;;
25439;SDS011;13365;52.208;5.488;2022-10-13T14:36:14;16.30;;;6.38;;
25439;SDS011;13365;52.208;5.488;2022-10-13T14:38:39;10.93;;;6.10;;
25439;SDS011;13365;52.208;5.488;2022-10-13T14:41:05;11.23;;;6.40;;
25439;SDS011;13365;52.208;5.488;2022-10-13T14:43:31;13.13;;;6.47;;
25439;SDS011;13365;52.208;5.488;2022-10-13T14:46:00;11.85;;;5.70;;
25439;SDS011;13365;52.208;5.488;2022-10-13T14:48:29;18.30;;;6.28;;
25439;SDS011;13365;52.208;5.488;2022-10-13T14:50:58;13.00;;;6.50;;
25439;SDS011;13365;52.208;5.488;2022-10-13T14:53:24;12.18;;;6.63;;
25439;SDS011;13365;52.208;5.488;2022-10-13T14:55:52;11.25;;;6.90;;
25439;SDS011;13365;52.208;5.488;2022-10-13T14:58:17;11.43;;;5.60;;
25439;SDS011;13365;52.208;5.488;2022-10-13T15:00:43;11.93;;;5.50;;
25439;SDS011;13365;52.208;5.488;2022-10-13T15:03:08;15.45;;;6.93;;
25439;SDS011;13365;52.208;5.488;2022-10-13T15:05:34;13.18;;;6.65;;
25439;SDS011;13365;52.208;5.488;2022-10-13T15:07:59;14.05;;;6.07;;
25439;SDS011;13365;52.208;5.488;2022-10-13T15:10:25;16.75;;;6.72;;
25439;SDS011;13365;52.208;5.488;2022-10-13T15:12:51;12.15;;;5.55;;
25439;SDS011;13365;52.208;5.488;2022-10-13T15:15:16;9.05;;;5.40;;
25439;SDS011;13365;52.208;5.488;2022-10-13T15:17:42;15.23;;;6.80;;
25439;SDS011;13365;52.208;5.488;2022-10-13T15:20:08;10.90;;;5.63;;
25439;SDS011;13365;52.208;5.488;2022-10-13T15:22:34;13.48;;;7.60;;
25439;SDS011;13365;52.208;5.488;2022-10-13T15:24:59;12.73;;;6.40;;
25439;SDS011;13365;52.208;5.488;2022-10-13T15:27:25;14.80;;;6.93;;
25439;SDS011;13365;52.208;5.488;2022-10-13T15:29:50;12.30;;;5.55;;
25439;SDS011;13365;52.208;5.488;2022-10-13T15:32:17;11.65;;;6.47;;
25439;SDS011;13365;52.208;5.488;2022-10-13T15:34:43;17.13;;;6.68;;
25439;SDS011;13365;52.208;5.488;2022-10-13T15:37:09;19.63;;;6.85;;
25439;SDS011;13365;52.208;5.488;2022-10-13T15:39:35;12.25;;;6.05;;
25439;SDS011;13365;52.208;5.488;2022-10-13T15:42:01;9.18;;;5.75;;
25439;SDS011;13365;52.208;5.488;2022-10-13T15:44:28;13.20;;;6.38;;
25439;SDS011;13365;52.208;5.488;2022-10-13T15:46:55;11.27;;;6.55;;
25439;SDS011;13365;52.208;5.488;2022-10-13T15:49:21;16.35;;;7.63;;
25439;SDS011;13365;52.208;5.488;2022-10-13T15:51:48;10.65;;;5.50;;
25439;SDS011;13365;52.208;5.488;2022-10-13T15:54:14;12.80;;;6.72;;
25439;SDS011;13365;52.208;5.488;2022-10-13T15:56:40;14.82;;;6.88;;
25439;SDS011;13365;52.208;5.488;2022-10-13T15:59:06;12.00;;;6.80;;